Time;durP1;ratioP1;P1;durP2;ratioP2;P2;SDS_P1;SDS_P2;PMS_P1;PMS_P2;Temp;Humidity;BMP_temperature;BMP_pressure;BME280_temperature;BME280_humidity;BME280_pressure;Samples;Min_cycle;Max_cycle;Signal;HPM_P1;HPM_P2
2020/12/16 00:01:17;;;;;;;8.10;7.30;;;6.50;99.90;;;;;;5009538;28;20505;-82
2020/12/16 00:03:44;;;;;;;10.63;7.50;;;6.30;99.90;;;;;;5014958;28;20853;-81
2020/12/16 00:06:10;;;;;;;9.40;8.20;;;6.50;99.90;;;;;;5014622;28;20455;-82
2020/12/16 00:08:36;;;;;;;7.30;6.50;;;6.40;99.90;;;;;;5013492;28;20463;-82
2020/12/16 00:11:03;;;;;;;7.83;6.60;;;6.30;99.90;;;;;;5011695;28;20448;-82
2020/12/16 00:13:30;;;;;;;8.17;6.50;;;6.30;99.90;;;;;;5014787;28;20808;-83
2020/12/16 00:15:56;;;;;;;8.37;7.03;;;6.30;99.90;;;;;;5009475;28;20447;-84
2020/12/16 00:18:22;;;;;;;6.97;6.20;;;6.20;99.90;;;;;;5014747;28;20521;-83
2020/12/16 00:20:48;;;;;;;10.60;9.50;;;6.20;99.90;;;;;;5014653;28;20469;-82
2020/12/16 00:23:15;;;;;;;8.80;6.90;;;5.60;99.90;;;;;;5013456;28;20491;-83
2020/12/16 00:25:41;;;;;;;7.50;6.40;;;;;;;;;;5009373;28;20459;-83
2020/12/16 00:28:08;;;;;;;8.53;7.10;;;6.00;99.90;;;;;;5010743;28;20458;-81
2020/12/16 00:30:35;;;;;;;7.37;6.57;;;6.00;99.90;;;;;;5014625;28;20466;-82
2020/12/16 00:33:01;;;;;;;10.07;7.30;;;;;;;;;;5014444;28;20483;-81
2020/12/16 00:35:29;;;;;;;7.90;7.10;;;5.90;99.90;;;;;;5014513;28;20476;-82
2020/12/16 00:37:56;;;;;;;9.17;6.80;;;5.70;99.90;;;;;;5013241;28;20963;-82
2020/12/16 00:40:23;;;;;;;7.30;6.60;;;5.80;99.90;;;;;;5014344;28;20455;-83
2020/12/16 00:42:50;;;;;;;9.03;7.20;;;5.80;99.90;;;;;;5014530;28;20454;-81
2020/12/16 00:45:18;;;;;;;8.20;6.67;;;5.80;99.90;;;;;;5014351;28;20452;-82
2020/12/16 00:47:45;;;;;;;8.83;7.10;;;5.70;99.90;;;;;;5014375;28;20817;-82
2020/12/16 00:50:12;;;;;;;11.10;7.87;;;;;;;;;;5014209;28;20455;-82
2020/12/16 00:52:38;;;;;;;8.70;6.70;;;5.10;99.90;;;;;;5012841;28;20964;-83
2020/12/16 00:55:05;;;;;;;10.43;7.50;;;5.70;99.90;;;;;;5011108;28;20458;-82
2020/12/16 00:57:33;;;;;;;11.20;7.90;;;5.70;99.90;;;;;;5009933;28;20447;-83
2020/12/16 01:00:01;;;;;;;11.97;7.63;;;5.90;99.90;;;;;;5013977;28;20537;-83
2020/12/16 01:02:27;;;;;;;11.00;9.00;;;5.80;99.90;;;;;;5006348;28;20485;-81
2020/12/16 01:04:54;;;;;;;11.70;8.40;;;5.90;99.90;;;;;;5013844;28;21021;-83
2020/12/16 01:07:21;;;;;;;13.53;8.80;;;;;;;;;;5012589;28;20457;-81
2020/12/16 01:09:47;;;;;;;16.50;9.53;;;5.90;99.90;;;;;;5013620;28;20483;-81
2020/12/16 01:12:14;;;;;;;13.33;9.53;;;5.90;99.90;;;;;;5013808;28;20453;-82
2020/12/16 01:14:40;;;;;;;12.40;9.13;;;6.00;99.90;;;;;;5010739;28;20450;-83
2020/12/16 01:17:06;;;;;;;11.97;9.37;;;6.00;99.90;;;;;;5013830;28;20509;-84
2020/12/16 01:19:32;;;;;;;12.73;9.53;;;6.10;99.90;;;;;;5010795;28;20950;-82
2020/12/16 01:21:59;;;;;;;11.00;9.07;;;6.30;99.90;;;;;;5012682;28;20453;-82
2020/12/16 01:24:26;;;;;;;13.10;9.93;;;6.20;99.90;;;;;;5013915;28;20509;-82
2020/12/16 01:26:54;;;;;;;12.17;8.97;;;6.20;99.90;;;;;;5013651;28;20463;-81
2020/12/16 01:29:21;;;;;;;15.80;10.77;;;6.30;99.90;;;;;;5013845;28;20488;-82
2020/12/16 01:31:49;;;;;;;15.37;10.77;;;6.20;99.90;;;;;;5013865;28;20447;-82
2020/12/16 01:34:19;;;;;;;14.00;10.07;;;6.30;99.90;;;;;;5013693;28;20451;-83
2020/12/16 01:36:46;;;;;;;14.33;10.17;;;7.20;99.90;;;;;;5012542;28;20502;-83
2020/12/16 01:39:15;;;;;;;14.63;9.50;;;6.50;99.90;;;;;;5013768;28;20460;-85
2020/12/16 01:41:42;;;;;;;11.50;9.40;;;6.50;99.90;;;;;;5013479;28;20473;-82
2020/12/16 01:44:13;;;;;;;14.37;10.23;;;6.60;99.90;;;;;;5013531;28;20522;-83
2020/12/16 01:46:46;;;;;;;11.80;9.20;;;6.60;99.90;;;;;;5013462;28;20791;-83
2020/12/16 01:49:12;;;;;;;13.47;9.53;;;6.50;99.90;;;;;;5013460;28;20522;-83
2020/12/16 01:51:39;;;;;;;10.90;8.30;;;6.50;99.90;;;;;;5012295;28;20818;-83
2020/12/16 01:54:07;;;;;;;12.47;8.73;;;6.60;99.90;;;;;;5009672;28;20452;-85
2020/12/16 01:56:38;;;;;;;11.83;9.77;;;6.60;99.90;;;;;;5013395;28;20502;-85
2020/12/16 01:59:06;;;;;;;14.77;9.37;;;6.40;99.90;;;;;;5010484;28;20451;-84
2020/12/16 02:01:35;;;;;;;11.80;8.90;;;6.70;99.90;;;;;;5013190;28;20953;-83
2020/12/16 02:04:02;;;;;;;13.00;9.50;;;6.60;99.90;;;;;;5007870;28;20491;-82
2020/12/16 02:06:32;;;;;;;14.00;10.40;;;6.80;99.90;;;;;;5012228;28;20451;-82
2020/12/16 02:09:04;;;;;;;11.67;9.80;;;6.60;99.90;;;;;;5013174;28;20482;-84
2020/12/16 02:11:30;;;;;;;10.50;8.70;;;6.60;99.90;;;;;;5013547;28;20454;-82
2020/12/16 02:13:57;;;;;;;10.70;8.33;;;6.60;99.90;;;;;;5008582;28;20452;-82
2020/12/16 02:16:24;;;;;;;11.57;8.87;;;6.60;99.90;;;;;;5013041;28;20463;-82
2020/12/16 02:18:52;;;;;;;12.17;8.77;;;6.60;99.90;;;;;;5013163;28;20457;-82
2020/12/16 02:21:18;;;;;;;11.10;8.70;;;6.50;99.90;;;;;;5012592;28;20456;-82
2020/12/16 02:23:46;;;;;;;11.93;9.43;;;6.60;99.90;;;;;;5007673;28;20558;-83
2020/12/16 02:26:14;;;;;;;13.80;10.13;;;6.50;99.90;;;;;;5013118;28;20466;-82
2020/12/16 02:28:41;;;;;;;12.50;9.40;;;6.60;99.90;;;;;;5012834;28;20454;-83
2020/12/16 02:31:07;;;;;;;10.90;9.70;;;6.60;99.90;;;;;;5013111;28;20506;-83
2020/12/16 02:33:33;;;;;;;11.77;9.47;;;6.60;99.90;;;;;;5013041;28;20464;-84
2020/12/16 02:36:00;;;;;;;11.07;8.83;;;6.60;99.90;;;;;;5013032;28;20455;-84
2020/12/16 02:38:26;;;;;;;10.80;9.27;;;6.70;99.90;;;;;;5012436;28;20944;-83
2020/12/16 02:40:52;;;;;;;10.70;8.83;;;6.60;99.90;;;;;;5017011;28;21015;-83
2020/12/16 02:43:19;;;;;;;11.97;9.27;;;6.70;99.90;;;;;;5016673;28;20451;-83
2020/12/16 02:45:45;;;;;;;11.57;8.87;;;6.80;99.90;;;;;;5016914;28;20453;-85
2020/12/16 02:48:13;;;;;;;12.40;9.53;;;6.70;99.90;;;;;;5016871;28;20490;-83
2020/12/16 02:50:40;;;;;;;11.23;9.40;;;6.70;99.90;;;;;;5016865;28;20455;-82
2020/12/16 02:53:06;;;;;;;11.20;8.77;;;6.70;99.90;;;;;;5015480;28;21050;-82
2020/12/16 02:55:32;;;;;;;11.30;8.40;;;6.70;99.90;;;;;;5016786;28;20514;-83
2020/12/16 02:57:59;;;;;;;12.17;9.60;;;6.70;99.90;;;;;;5016588;28;20459;-83
2020/12/16 03:00:26;;;;;;;17.50;10.53;;;6.70;99.90;;;;;;5016613;28;20462;-82
2020/12/16 03:02:52;;;;;;;11.80;9.10;;;6.70;99.90;;;;;;5016573;28;20466;-82
2020/12/16 03:05:18;;;;;;;13.30;9.53;;;6.80;99.90;;;;;;5016495;28;20509;-84
2020/12/16 03:07:45;;;;;;;12.70;9.20;;;6.80;99.90;;;;;;5015663;28;20451;-85
2020/12/16 03:10:11;;;;;;;10.13;8.50;;;;;;;;;;5013434;28;20487;-85
2020/12/16 03:12:38;;;;;;;9.97;8.70;;;6.80;99.90;;;;;;5016334;28;20468;-83
2020/12/16 03:15:04;;;;;;;11.80;9.13;;;;;;;;;;5013465;28;20460;-82
2020/12/16 03:17:32;;;;;;;12.47;9.50;;;6.80;99.90;;;;;;5016242;28;20843;-83
2020/12/16 03:19:58;;;;;;;11.27;9.17;;;6.80;99.90;;;;;;5016185;28;20955;-82
2020/12/16 03:22:24;;;;;;;12.03;8.93;;;6.80;99.90;;;;;;5015051;28;20450;-85
2020/12/16 03:24:50;;;;;;;11.17;9.33;;;6.80;99.90;;;;;;5016153;28;20506;-84
2020/12/16 03:27:17;;;;;;;11.80;10.20;;;7.00;99.90;;;;;;5015981;28;20462;-83
2020/12/16 03:29:43;;;;;;;12.57;9.47;;;;;;;;;;5011861;28;20470;-84
2020/12/16 03:32:09;;;;;;;13.87;10.80;;;7.00;99.90;;;;;;5016074;28;20475;-83
2020/12/16 03:34:37;;;;;;;11.43;10.17;;;7.00;99.90;;;;;;5015979;28;20950;-85
2020/12/16 03:37:03;;;;;;;15.93;11.57;;;7.40;99.90;;;;;;5014761;28;20479;-83
2020/12/16 03:39:29;;;;;;;14.40;10.97;;;7.10;99.90;;;;;;5015900;28;20834;-82
2020/12/16 03:41:58;;;;;;;12.80;11.50;;;7.00;99.90;;;;;;5016032;28;20459;-83
2020/12/16 03:44:25;;;;;;;15.73;10.63;;;7.10;99.90;;;;;;5015812;28;20531;-83
2020/12/16 03:46:52;;;;;;;11.83;10.40;;;7.10;99.90;;;;;;5015712;28;20462;-83
2020/12/16 03:49:18;;;;;;;12.70;10.37;;;7.10;99.90;;;;;;5010699;28;20576;-84
2020/12/16 03:51:45;;;;;;;18.40;10.10;;;7.00;99.90;;;;;;5014607;28;20479;-82
2020/12/16 03:54:12;;;;;;;13.90;11.00;;;7.10;99.90;;;;;;5015569;28;20452;-82
2020/12/16 03:56:38;;;;;;;14.20;9.83;;;;;;;;;;5015594;28;20446;-83
2020/12/16 03:59:04;;;;;;;13.57;10.80;;;7.00;99.90;;;;;;5015476;28;20456;-84
2020/12/16 04:01:31;;;;;;;13.13;10.40;;;7.10;99.90;;;;;;5015414;28;20989;-82
2020/12/16 04:03:57;;;;;;;15.97;10.80;;;7.10;99.90;;;;;;5015439;28;20517;-82
2020/12/16 04:06:23;;;;;;;12.90;10.50;;;7.10;99.90;;;;;;5014237;28;20483;-85
2020/12/16 04:08:50;;;;;;;12.17;10.50;;;7.50;99.90;;;;;;5015251;28;20494;-82
2020/12/16 04:11:18;;;;;;;11.50;9.77;;;6.90;99.90;;;;;;5015339;28;20463;-84
2020/12/16 04:13:44;;;;;;;12.60;9.67;;;6.90;99.90;;;;;;5015224;28;20455;-84
2020/12/16 04:16:13;;;;;;;13.43;10.57;;;6.90;99.90;;;;;;5015270;28;20455;-83
2020/12/16 04:18:39;;;;;;;10.77;9.63;;;6.80;99.90;;;;;;5015135;28;20451;-82
2020/12/16 04:21:07;;;;;;;12.93;9.90;;;6.80;99.90;;;;;;5015204;28;20443;-84
2020/12/16 04:23:34;;;;;;;11.30;9.77;;;6.80;99.90;;;;;;5013610;28;20994;-84
2020/12/16 04:26:01;;;;;;;11.70;9.67;;;6.70;99.90;;;;;;5015006;28;20455;-84
2020/12/16 04:28:28;;;;;;;10.57;9.30;;;6.70;99.90;;;;;;5015045;28;20482;-83
2020/12/16 04:30:54;;;;;;;11.73;9.07;;;6.60;99.90;;;;;;5014978;28;20459;-84
2020/12/16 04:33:21;;;;;;;12.70;9.80;;;6.60;99.90;;;;;;5014925;28;20453;-85
2020/12/16 04:35:47;;;;;;;12.90;9.87;;;6.50;99.90;;;;;;5014814;28;20510;-82
2020/12/16 04:38:14;;;;;;;11.30;10.20;;;6.60;99.90;;;;;;5013513;28;20805;-84
2020/12/16 04:40:40;;;;;;;17.83;11.20;;;6.40;99.90;;;;;;5014921;28;20450;-82
2020/12/16 04:43:10;;;;;;;14.53;10.20;;;6.40;99.90;;;;;;5010708;28;20446;-84
2020/12/16 04:45:36;;;;;;;11.50;9.20;;;6.30;99.90;;;;;;5014622;28;20502;-83
2020/12/16 04:48:03;;;;;;;12.50;9.60;;;6.20;99.90;;;;;;5014580;28;20454;-84
2020/12/16 04:50:30;;;;;;;12.10;9.77;;;6.10;99.90;;;;;;5014534;28;20985;-83
2020/12/16 04:53:01;;;;;;;13.70;10.33;;;6.10;99.90;;;;;;5008375;28;20443;-84
2020/12/16 04:55:28;;;;;;;10.10;8.90;;;6.10;99.90;;;;;;5011956;28;20531;-83
2020/12/16 04:57:54;;;;;;;8.97;8.10;;;6.00;99.90;;;;;;5007816;28;20456;-82
2020/12/16 05:00:23;;;;;;;14.63;10.93;;;5.90;99.90;;;;;;5011428;28;20501;-83
2020/12/16 05:02:56;;;;;;;14.60;11.70;;;5.90;99.90;;;;;;5013724;28;20449;-84
2020/12/16 05:05:23;;;;;;;14.80;11.00;;;6.20;99.90;;;;;;5009099;28;20605;-83
2020/12/16 05:07:49;;;;;;;11.97;9.70;;;6.00;99.90;;;;;;5013193;28;20578;-83
2020/12/16 05:10:16;;;;;;;12.80;10.90;;;6.00;99.90;;;;;;5014067;28;20536;-82
2020/12/16 05:12:43;;;;;;;13.33;10.33;;;6.00;99.90;;;;;;5014175;28;20876;-84
2020/12/16 05:15:24;;;;;;;15.73;10.60;;;5.90;99.90;;;;;;5011293;28;20470;-83
2020/12/16 05:18:25;;;;;;;13.23;9.70;;;5.80;99.90;;;;;;5014078;28;20454;-83
2020/12/16 05:20:54;;;;;;;11.37;9.47;;;5.80;99.90;;;;;;4934504;29;20505;-82
2020/12/16 05:23:24;;;;;;;13.73;9.17;;;5.70;99.90;;;;;;4933060;29;20453;-84
2020/12/16 05:25:59;;;;;;;12.17;9.10;;;5.70;99.90;;;;;;4973982;28;20441;-85
2020/12/16 05:28:30;;;;;;;14.80;10.30;;;5.80;99.90;;;;;;5009746;28;20459;-82
2020/12/16 05:30:58;;;;;;;17.20;10.40;;;5.90;99.90;;;;;;5010878;28;20460;-84
2020/12/16 05:33:25;;;;;;;11.77;10.10;;;5.90;99.90;;;;;;5013862;28;20454;-85
2020/12/16 05:35:52;;;;;;;13.47;9.93;;;6.00;99.90;;;;;;5013829;28;20457;-83
2020/12/16 05:38:19;;;;;;;10.83;8.80;;;5.80;99.90;;;;;;5012622;28;20447;-82
2020/12/16 05:40:45;;;;;;;11.07;9.33;;;5.90;99.90;;;;;;5013568;28;20458;-82
2020/12/16 05:43:22;;;;;;;13.87;10.97;;;5.80;99.90;;;;;;5013749;28;20512;-83
2020/12/16 05:45:49;;;;;;;13.67;9.60;;;5.80;99.90;;;;;;5013710;28;20545;-85
2020/12/16 05:48:17;;;;;;;15.53;10.20;;;5.80;99.90;;;;;;5007004;28;20442;-84
2020/12/16 05:50:46;;;;;;;13.03;10.13;;;5.80;99.90;;;;;;5013737;28;20450;-82
2020/12/16 05:53:15;;;;;;;12.80;9.90;;;5.80;99.90;;;;;;5012269;28;20451;-84
2020/12/16 05:55:42;;;;;;;12.33;9.90;;;5.80;99.90;;;;;;5013543;28;20454;-84
2020/12/16 05:58:10;;;;;;;12.93;10.30;;;5.70;99.90;;;;;;5013407;28;20835;-82
2020/12/16 06:00:46;;;;;;;11.77;10.13;;;5.70;99.90;;;;;;5013441;28;20477;-84
2020/12/16 06:03:21;;;;;;;10.80;9.47;;;7.60;99.90;;;;;;5004668;28;20507;-85
2020/12/16 06:05:52;;;;;;;12.70;10.00;;;5.70;99.90;;;;;;5012983;28;20508;-84
2020/12/16 06:08:19;;;;;;;13.30;9.23;;;5.70;99.90;;;;;;5012119;28;20449;-84
2020/12/16 06:10:47;;;;;;;14.73;9.37;;;5.80;99.90;;;;;;5013147;28;20895;-83
2020/12/16 06:13:15;;;;;;;14.63;10.23;;;5.80;99.90;;;;;;5013260;28;20519;-83
2020/12/16 06:15:56;;;;;;;13.73;10.87;;;5.80;99.90;;;;;;5013119;28;20451;-84
2020/12/16 06:18:26;;;;;;;16.97;12.80;;;5.80;99.90;;;;;;5013110;28;21012;-82
2020/12/16 06:20:53;;;;;;;18.30;11.90;;;5.80;99.90;;;;;;5010410;28;20495;-83
2020/12/16 06:23:32;;;;;;;20.13;15.60;;;5.90;99.90;;;;;;5011794;28;20451;-83
2020/12/16 06:26:00;;;;;;;18.07;12.77;;;5.90;99.90;;;;;;5013219;28;20450;-82
2020/12/16 06:28:27;;;;;;;13.77;10.73;;;6.00;99.90;;;;;;5013139;28;20458;-83
2020/12/16 06:31:03;;;;;;;13.30;11.30;;;5.90;99.90;;;;;;5009880;28;20442;-83
2020/12/16 06:33:39;;;;;;;17.17;11.60;;;6.00;99.90;;;;;;5013045;28;20462;-86
2020/12/16 06:36:07;;;;;;;14.80;11.10;;;6.00;99.90;;;;;;5012974;28;20446;-83
2020/12/16 06:38:43;;;;;;;13.77;11.60;;;6.00;99.90;;;;;;5011881;28;20496;-83
2020/12/16 06:41:28;;;;;;;12.40;10.30;;;6.00;99.90;;;;;;5012835;28;20830;-85
2020/12/16 06:43:55;;;;;;;14.33;10.70;;;6.00;99.90;;;;;;5012892;28;20487;-83
2020/12/16 06:46:47;;;;;;;12.23;9.60;;;6.00;99.90;;;;;;5007536;28;21055;-87
2020/12/16 06:49:47;;;;;;;12.43;10.17;;;5.90;99.90;;;;;;5012928;28;20587;-85
2020/12/16 06:52:14;;;;;;;15.70;9.00;;;6.10;99.90;;;;;;5011864;28;20463;-84
2020/12/16 06:54:47;;;;;;;10.70;9.30;;;6.10;99.90;;;;;;5012904;28;20451;-84
2020/12/16 06:57:16;;;;;;;10.77;9.03;;;6.20;99.90;;;;;;5012915;28;20488;-85
2020/12/16 06:59:47;;;;;;;14.37;9.40;;;6.20;99.90;;;;;;5012825;28;20937;-83
2020/12/16 07:02:15;;;;;;;13.40;10.07;;;6.20;99.90;;;;;;5012821;28;20482;-83
2020/12/16 07:04:42;;;;;;;12.47;9.53;;;6.20;99.90;;;;;;5012700;28;20500;-84
2020/12/16 07:07:48;;;;;;;13.73;9.13;;;6.20;99.90;;;;;;5011677;28;20451;-85
2020/12/16 07:10:41;;;;;;;11.57;8.80;;;6.20;99.90;;;;;;5012560;28;20506;-85
2020/12/16 07:13:27;;;;;;;12.07;9.73;;;6.20;99.90;;;;;;5005847;28;20512;-83
2020/12/16 07:15:57;;;;;;;10.50;8.10;;;6.20;99.90;;;;;;5012636;28;20466;-82
2020/12/16 07:18:31;;;;;;;12.00;8.90;;;6.10;99.90;;;;;;5012733;28;20465;-84
2020/12/16 07:21:19;;;;;;;10.40;8.57;;;6.10;99.90;;;;;;5012533;28;20452;-85
2020/12/16 07:23:51;;;;;;;10.20;8.10;;;6.10;99.90;;;;;;5007132;28;20443;-83
2020/12/16 07:26:19;;;;;;;9.40;7.53;;;6.10;99.90;;;;;;5016014;28;20447;-83
2020/12/16 07:28:46;;;;;;;9.60;8.30;;;6.00;99.90;;;;;;5009862;28;20453;-83
2020/12/16 07:31:12;;;;;;;10.30;7.70;;;6.10;99.90;;;;;;4996313;28;20457;-83
2020/12/16 07:33:39;;;;;;;10.50;8.87;;;6.10;99.90;;;;;;4996487;28;20445;-82
2020/12/16 07:36:06;;;;;;;8.37;7.10;;;6.00;99.90;;;;;;4996991;28;20456;-83
2020/12/16 07:38:35;;;;;;;10.40;6.60;;;6.00;99.90;;;;;;4995262;28;20473;-84
2020/12/16 07:41:02;;;;;;;8.43;7.30;;;6.10;99.90;;;;;;4996292;28;21095;-83
2020/12/16 07:43:29;;;;;;;8.23;7.30;;;6.00;99.90;;;;;;4996222;28;20457;-82
2020/12/16 07:46:03;;;;;;;8.77;6.43;;;6.00;99.90;;;;;;4993218;28;20502;-84
2020/12/16 07:48:29;;;;;;;8.77;6.40;;;6.00;99.90;;;;;;4991003;28;20453;-82
2020/12/16 07:51:01;;;;;;;10.80;7.13;;;6.00;99.90;;;;;;4996082;28;20446;-86
2020/12/16 07:53:27;;;;;;;9.30;6.80;;;6.00;99.90;;;;;;4994990;28;20453;-83
2020/12/16 07:55:58;;;;;;;8.23;7.30;;;6.10;99.90;;;;;;4996249;28;20583;-83
2020/12/16 07:58:25;;;;;;;7.30;6.50;;;6.00;99.90;;;;;;4995976;28;20450;-83
2020/12/16 08:00:51;;;;;;;6.17;5.10;;;6.00;99.90;;;;;;4993084;28;20475;-82
2020/12/16 08:03:18;;;;;;;10.43;6.67;;;6.30;99.90;;;;;;4995989;28;20450;-82
2020/12/16 08:05:44;;;;;;;8.23;6.80;;;;;;;;;;4991885;28;20509;-85
2020/12/16 08:08:11;;;;;;;9.03;7.00;;;6.90;99.90;;;;;;4994753;28;20936;-82
2020/12/16 08:10:37;;;;;;;8.17;6.47;;;6.60;99.90;;;;;;4993075;28;20823;-85
2020/12/16 08:13:03;;;;;;;7.07;5.87;;;6.40;99.90;;;;;;4995705;28;20873;-87
2020/12/16 08:15:30;;;;;;;9.10;5.90;;;6.30;99.90;;;;;;4993447;28;20454;-88
2020/12/16 08:17:57;;;;;;;7.83;6.73;;;6.30;99.90;;;;;;4996000;28;20506;-85
2020/12/16 08:20:25;;;;;;;9.70;7.60;;;6.40;99.90;;;;;;4995727;28;20457;-87
2020/12/16 08:22:55;;;;;;;8.03;6.60;;;6.40;99.90;;;;;;4994599;28;20463;-87
2020/12/16 08:25:22;;;;;;;8.40;6.60;;;6.50;99.90;;;;;;4995797;28;20496;-83
2020/12/16 08:27:51;;;;;;;11.00;7.00;;;6.80;99.90;;;;;;4986927;28;20947;-82
2020/12/16 08:30:19;;;;;;;7.77;6.70;;;6.70;99.90;;;;;;4981189;28;20964;-84
2020/12/16 08:32:56;;;;;;;8.93;6.30;;;6.70;99.90;;;;;;4975797;28;20452;-84
2020/12/16 08:35:28;;;;;;;6.53;5.73;;;6.80;99.90;;;;;;4972603;28;20615;-85
2020/12/16 08:37:55;;;;;;;16.27;7.13;;;6.50;99.90;;;;;;4990100;28;20448;-84
2020/12/16 08:40:22;;;;;;;8.23;6.60;;;6.70;99.90;;;;;;4994797;28;20446;-84
2020/12/16 08:42:49;;;;;;;9.10;7.40;;;7.10;99.90;;;;;;4994658;28;20460;-85
2020/12/16 08:45:21;;;;;;;8.30;6.97;;;7.40;99.90;;;;;;5011647;28;20500;-85
2020/12/16 08:47:48;;;;;;;10.70;5.70;;;7.30;99.90;;;;;;5003366;28;20446;-84
2020/12/16 08:50:17;;;;;;;5.83;4.87;;;8.00;99.90;;;;;;5003740;28;20835;-84
2020/12/16 08:52:45;;;;;;;6.13;5.53;;;8.00;99.90;;;;;;5013452;28;20940;-85
2020/12/16 08:55:17;;;;;;;6.60;5.90;;;8.10;99.90;;;;;;5014547;28;20799;-83
2020/12/16 08:57:50;;;;;;;7.27;5.10;;;8.20;99.90;;;;;;5014428;28;20449;-84
2020/12/16 09:00:17;;;;;;;5.10;4.60;;;8.80;99.90;;;;;;5014759;28;20445;-84
2020/12/16 09:02:43;;;;;;;4.63;4.13;;;;;;;;;;5010493;28;20453;-85
2020/12/16 09:05:10;;;;;;;4.20;3.80;;;9.50;99.90;;;;;;5014185;28;20501;-87
2020/12/16 09:07:37;;;;;;;7.77;3.87;;;9.80;99.90;;;;;;5013271;28;20455;-86
2020/12/16 09:10:08;;;;;;;5.90;5.13;;;9.60;99.90;;;;;;5014473;28;20890;-89
2020/12/16 09:12:34;;;;;;;5.23;4.23;;;;;;;;;;5014471;28;20445;-88
2020/12/16 09:15:03;;;;;;;4.57;4.03;;;;;;;;;;5014451;28;20459;-89
2020/12/16 09:17:31;;;;;;;4.00;3.70;;;9.30;99.90;;;;;;5014597;28;20525;-89
2020/12/16 09:19:58;;;;;;;4.50;4.10;;;9.80;99.90;;;;;;5014389;28;20459;-88
2020/12/16 09:22:27;;;;;;;3.70;3.40;;;9.70;99.90;;;;;;5013600;28;20455;-91
2020/12/16 09:24:54;;;;;;;4.17;3.47;;;8.60;99.90;;;;;;5013939;28;20587;-86
2020/12/16 09:27:21;;;;;;;3.27;2.90;;;8.20;99.90;;;;;;5014072;28;20947;-84
2020/12/16 09:29:48;;;;;;;3.20;2.90;;;8.00;99.90;;;;;;5014058;28;20452;-84
2020/12/16 09:32:15;;;;;;;3.50;3.13;;;8.10;99.90;;;;;;5013759;28;20466;-85
2020/12/16 09:34:44;;;;;;;5.70;3.90;;;8.30;99.90;;;;;;5013846;28;20457;-84
2020/12/16 09:37:15;;;;;;;3.00;2.67;;;8.90;99.90;;;;;;5012566;28;20934;-86
2020/12/16 09:39:42;;;;;;;7.33;6.53;;;9.50;99.90;;;;;;5013743;28;20452;-84
2020/12/16 09:42:10;;;;;;;3.67;3.30;;;10.00;99.90;;;;;;5013722;28;20813;-84
2020/12/16 09:44:37;;;;;;;3.30;2.87;;;;;;;;;;5013524;28;20500;-85
2020/12/16 09:47:18;;;;;;;4.80;4.30;;;11.40;99.90;;;;;;5013489;28;20456;-85
2020/12/16 09:49:46;;;;;;;5.70;3.17;;;10.90;99.90;;;;;;5013564;28;20515;-85
2020/12/16 09:52:32;;;;;;;4.13;3.73;;;10.90;99.90;;;;;;5007133;28;20457;-83
2020/12/16 09:55:14;;;;;;;4.10;3.70;;;11.20;99.90;;;;;;5010597;28;20833;-85
2020/12/16 09:57:40;;;;;;;6.27;5.43;;;;;;;;;;5013159;28;20553;-84
2020/12/16 10:00:08;;;;;;;6.77;5.70;;;12.20;99.90;;;;;;5013450;28;20458;-84
2020/12/16 10:02:34;;;;;;;4.93;3.03;;;;;;;;;;5013420;28;20978;-83
2020/12/16 10:05:01;;;;;;;4.63;3.77;;;;;;;;;;5009722;28;21029;-85
2020/12/16 10:07:31;;;;;;;4.70;4.30;;;12.30;99.90;;;;;;5011821;28;20456;-84
2020/12/16 10:09:58;;;;;;;3.37;3.07;;;;;;;;;;5009613;28;20503;-84
2020/12/16 10:12:25;;;;;;;4.53;3.53;;;11.10;99.90;;;;;;5009061;28;20460;-87
2020/12/16 10:14:52;;;;;;;3.27;2.97;;;;;;;;;;5012955;28;20467;-85
2020/12/16 10:17:24;;;;;;;3.33;3.03;;;11.40;99.90;;;;;;5012928;28;20817;-88
2020/12/16 10:19:51;;;;;;;4.93;3.97;;;11.80;99.90;;;;;;5012948;28;20553;-84
2020/12/16 10:22:17;;;;;;;3.57;3.23;;;12.40;99.90;;;;;;5011613;28;20455;-83
2020/12/16 10:24:44;;;;;;;4.17;3.80;;;;;;;;;;5012837;28;20499;-85
2020/12/16 10:27:10;;;;;;;4.50;3.40;;;;;;;;;;5012783;28;20452;-86
2020/12/16 10:29:38;;;;;;;5.63;3.30;;;13.20;99.90;;;;;;5009728;28;20954;-84
2020/12/16 10:32:04;;;;;;;3.30;3.00;;;13.10;99.90;;;;;;5008730;28;20449;-88
2020/12/16 10:34:31;;;;;;;4.27;3.43;;;;;;;;;;5013088;28;20456;-83
2020/12/16 10:36:58;;;;;;;5.60;3.30;;;;;;;;;;5010742;28;20468;-86
2020/12/16 10:39:24;;;;;;;5.07;3.67;;;13.40;99.90;;;;;;4993697;28;20438;-84
2020/12/16 10:41:53;;;;;;;4.03;3.73;;;13.80;99.90;;;;;;4993028;28;20449;-85
2020/12/16 10:44:19;;;;;;;4.07;3.60;;;;;;;;;;4993244;28;20493;-86
2020/12/16 10:46:48;;;;;;;4.87;4.47;;;14.00;99.90;;;;;;4993072;28;20949;-84
2020/12/16 10:49:15;;;;;;;5.53;3.70;;;14.10;99.90;;;;;;4989997;28;20464;-86
2020/12/16 10:51:42;;;;;;;4.23;3.67;;;13.50;99.90;;;;;;4991631;28;20453;-87
2020/12/16 10:54:08;;;;;;;5.37;4.17;;;13.30;99.90;;;;;;4988471;28;20525;-84
2020/12/16 10:56:35;;;;;;;3.50;3.20;;;12.30;99.90;;;;;;4992927;28;20449;-85
2020/12/16 10:59:02;;;;;;;3.97;3.57;;;12.40;99.90;;;;;;4986962;28;20455;-82
2020/12/16 11:01:44;;;;;;;4.63;3.50;;;12.70;99.90;;;;;;4984290;28;20457;-86
2020/12/16 11:04:11;;;;;;;5.67;3.40;;;;;;;;;;4995664;28;20453;-83
2020/12/16 11:06:43;;;;;;;4.30;3.20;;;12.50;99.90;;;;;;4975783;28;20462;-85
2020/12/16 11:09:10;;;;;;;5.20;3.63;;;;;;;;;;4976939;28;20486;-83
2020/12/16 11:11:40;;;;;;;3.90;3.03;;;12.20;99.90;;;;;;4974070;28;20447;-83
2020/12/16 11:14:06;;;;;;;3.90;3.40;;;;;;;;;;4972637;28;20958;-84
2020/12/16 11:16:34;;;;;;;4.00;3.60;;;12.60;99.90;;;;;;4978785;28;20473;-87
2020/12/16 11:19:00;;;;;;;4.90;3.00;;;13.40;99.90;;;;;;4996457;28;20454;-87
2020/12/16 11:21:26;;;;;;;4.57;4.03;;;13.60;99.90;;;;;;4995135;28;20446;-87
2020/12/16 11:23:53;;;;;;;4.47;4.07;;;13.90;99.90;;;;;;4996330;28;20446;-86
2020/12/16 11:26:20;;;;;;;5.90;4.03;;;;;;;;;;4989444;28;20810;-87
2020/12/16 11:28:46;;;;;;;4.63;4.23;;;14.10;99.90;;;;;;4996273;28;20446;-84
2020/12/16 11:31:13;;;;;;;5.50;4.70;;;14.00;99.90;;;;;;4993145;28;20446;-88
2020/12/16 11:33:40;;;;;;;5.20;4.37;;;14.20;99.90;;;;;;4996111;28;20835;-83
2020/12/16 11:36:09;;;;;;;5.17;4.30;;;14.10;99.90;;;;;;4990360;28;20820;-84
2020/12/16 11:38:36;;;;;;;3.43;3.13;;;;;;;;;;4991917;28;20465;-85
2020/12/16 11:41:02;;;;;;;4.93;4.50;;;;;;;;;;4995950;28;20498;-84
2020/12/16 11:43:29;;;;;;;4.77;4.30;;;;;;;;;;4995875;28;20461;-86
2020/12/16 11:45:56;;;;;;;4.77;4.00;;;;;;;;;;4995669;28;20520;-84
2020/12/16 11:48:22;;;;;;;4.57;4.10;;;13.60;99.90;;;;;;4995877;28;20449;-83
2020/12/16 11:50:49;;;;;;;5.23;4.20;;;13.20;99.90;;;;;;4999785;28;20817;-84
2020/12/16 11:53:16;;;;;;;4.00;3.60;;;;;;;;;;5009746;28;20445;-85
2020/12/16 11:55:42;;;;;;;4.33;3.80;;;14.20;99.90;;;;;;4996321;28;20505;-86
2020/12/16 11:58:09;;;;;;;4.50;4.10;;;;;;;;;;5009646;28;20456;-86
2020/12/16 12:00:35;;;;;;;5.23;4.00;;;;;;;;;;5014630;28;20476;-87
2020/12/16 12:03:02;;;;;;;5.33;4.00;;;;;;;;;;5015184;28;20449;-87
2020/12/16 12:05:28;;;;;;;4.23;3.67;;;14.30;99.90;;;;;;5015338;28;20507;-86
2020/12/16 12:07:55;;;;;;;5.30;3.90;;;13.40;99.90;;;;;;5013941;28;20459;-86
2020/12/16 12:10:21;;;;;;;5.97;5.30;;;13.90;99.90;;;;;;5014832;28;20491;-87
2020/12/16 12:12:48;;;;;;;9.23;7.27;;;;;;;;;;5015011;28;20449;-87
2020/12/16 12:15:15;;;;;;;4.70;4.10;;;;;;;;;;5015093;28;20453;-87
2020/12/16 12:17:41;;;;;;;5.20;4.50;;;14.30;99.90;;;;;;5015228;28;20451;-85
2020/12/16 12:20:07;;;;;;;4.70;4.20;;;14.50;99.90;;;;;;5015071;28;20452;-85
2020/12/16 12:22:34;;;;;;;6.00;4.73;;;;;;;;;;5014067;28;20801;-89
2020/12/16 12:25:01;;;;;;;5.93;4.60;;;15.10;99.90;;;;;;5015171;28;20496;-89
2020/12/16 12:27:27;;;;;;;5.53;4.40;;;14.60;99.90;;;;;;5014983;28;20447;-88
2020/12/16 12:29:53;;;;;;;5.37;4.80;;;15.00;99.90;;;;;;5015089;28;20456;-88
2020/12/16 12:32:19;;;;;;;5.20;4.77;;;14.80;99.90;;;;;;5015016;28;20982;-85
2020/12/16 12:34:46;;;;;;;4.97;4.23;;;;;;;;;;5015548;28;20463;-88
2020/12/16 12:37:13;;;;;;;5.20;4.70;;;;;;;;;;5014277;28;20460;-85
2020/12/16 12:39:39;;;;;;;6.03;4.60;;;;;;;;;;5014736;28;20969;-86
2020/12/16 12:42:06;;;;;;;7.23;4.40;;;15.30;99.90;;;;;;5014776;28;20531;-88
2020/12/16 12:44:33;;;;;;;5.40;4.90;;;;;;;;;;5014638;28;20488;-86
2020/12/16 12:47:00;;;;;;;4.20;3.57;;;14.80;99.90;;;;;;5008015;28;20449;-86
2020/12/16 12:49:27;;;;;;;6.60;3.80;;;14.30;99.90;;;;;;5011734;28;21115;-83
2020/12/16 12:51:53;;;;;;;4.80;3.70;;;;;;;;;;4996157;28;20473;-85
2020/12/16 12:54:19;;;;;;;18.30;16.43;;;14.30;99.90;;;;;;4994858;28;20506;-85
2020/12/16 12:56:46;;;;;;;6.67;5.83;;;14.20;99.90;;;;;;4994704;28;20449;-85
2020/12/16 12:59:13;;;;;;;7.93;7.13;;;14.70;99.90;;;;;;4994595;28;20453;-85
2020/12/16 13:01:39;;;;;;;4.93;3.50;;;14.70;99.90;;;;;;5007617;28;20472;-87
2020/12/16 13:04:06;;;;;;;5.30;4.77;;;;;;;;;;5014108;28;20455;-88
2020/12/16 13:06:33;;;;;;;5.47;4.07;;;15.50;99.90;;;;;;5012944;28;20940;-85